createdAt,value
2022-12-09T00:00:39.305Z,8.75
2022-12-09T00:03:06.299Z,9.45
2022-12-09T00:05:33.297Z,9.10
2022-12-09T00:08:00.323Z,9.75
2022-12-09T00:10:27.286Z,10.15
2022-12-09T00:12:56.215Z,9.27
2022-12-09T00:15:23.578Z,9.32
2022-12-09T00:17:50.460Z,9.73
2022-12-09T00:20:20.567Z,9.23
2022-12-09T00:22:47.420Z,10.00
2022-12-09T00:25:14.350Z,9.23
2022-12-09T00:27:41.095Z,8.35
2022-12-09T00:30:08.943Z,9.60
2022-12-09T00:32:35.986Z,9.75
2022-12-09T00:35:04.801Z,9.18
2022-12-09T00:37:33.296Z,10.15
2022-12-09T00:40:00.471Z,9.23
2022-12-09T00:42:27.357Z,9.55
2022-12-09T00:44:54.236Z,10.52
2022-12-09T00:47:21.061Z,10.02
2022-12-09T00:49:48.177Z,10.57
2022-12-09T00:52:15.053Z,11.45
2022-12-09T00:54:42.147Z,9.88
2022-12-09T00:57:09.278Z,10.30
2022-12-09T00:59:36.097Z,10.98
2022-12-09T01:02:03.149Z,10.77
2022-12-09T01:04:30.519Z,10.35
2022-12-09T01:06:57.656Z,10.68
2022-12-09T01:09:28.035Z,10.45
2022-12-09T01:11:54.892Z,9.40
2022-12-09T01:14:21.947Z,10.20
2022-12-09T01:16:49.191Z,10.73
2022-12-09T01:19:16.805Z,10.88
2022-12-09T01:21:43.745Z,10.57
2022-12-09T01:24:11.749Z,10.93
2022-12-09T01:26:39.297Z,9.98
2022-12-09T01:29:06.292Z,10.23
2022-12-09T01:31:33.534Z,11.10
2022-12-09T01:34:02.832Z,10.68
2022-12-09T01:36:31.130Z,10.70
2022-12-09T01:39:00.238Z,9.68
2022-12-09T01:41:27.469Z,10.75
2022-12-09T01:44:20.769Z,10.80
2022-12-09T01:46:48.473Z,10.82
2022-12-09T01:49:34.562Z,9.57
2022-12-09T01:52:20.297Z,10.20
2022-12-09T01:54:49.032Z,9.70
2022-12-09T01:57:16.516Z,9.63
2022-12-09T01:59:44.320Z,10.30
2022-12-09T02:02:16.214Z,10.38
2022-12-09T02:04:46.179Z,10.18
2022-12-09T02:07:14.569Z,10.43
2022-12-09T02:09:43.103Z,11.38
2022-12-09T02:12:16.812Z,9.90
2022-12-09T02:15:02.131Z,10.90
2022-12-09T02:17:39.328Z,10.40
2022-12-09T02:20:23.680Z,10.75
2022-12-09T02:23:08.386Z,10.03
2022-12-09T02:25:48.739Z,10.27
2022-12-09T02:28:36.188Z,9.18
2022-12-09T02:31:21.504Z,9.02
2022-12-09T02:34:04.955Z,9.93
2022-12-09T02:36:44.222Z,10.23
2022-12-09T02:39:11.323Z,9.98
2022-12-09T02:41:41.838Z,9.77
2022-12-09T02:44:17.257Z,8.95
2022-12-09T02:46:46.644Z,8.98
2022-12-09T02:49:15.327Z,8.73
2022-12-09T02:51:44.231Z,8.68
2022-12-09T02:54:17.207Z,9.32
2022-12-09T02:56:53.503Z,9.05
2022-12-09T02:59:22.204Z,9.02
2022-12-09T03:02:12.480Z,9.82
2022-12-09T03:04:42.251Z,9.52
2022-12-09T03:07:26.003Z,9.63
2022-12-09T03:10:06.525Z,9.45
2022-12-09T03:12:35.601Z,9.15
2022-12-09T03:15:06.007Z,9.13
2022-12-09T03:17:36.250Z,8.88
2022-12-09T03:20:16.830Z,10.15
2022-12-09T03:22:46.391Z,9.63
2022-12-09T03:25:19.484Z,8.27
2022-12-09T03:27:57.169Z,9.60
2022-12-09T03:30:24.086Z,9.23
2022-12-09T03:32:52.521Z,9.68
2022-12-09T03:35:23.761Z,9.05
2022-12-09T03:37:52.453Z,9.98
2022-12-09T03:40:27.068Z,9.65
2022-12-09T03:43:13.341Z,9.30
2022-12-09T03:45:41.014Z,10.40
2022-12-09T03:48:09.143Z,12.30
2022-12-09T03:50:58.894Z,11.65
2022-12-09T03:53:41.567Z,11.85
2022-12-09T03:56:18.731Z,10.95
2022-12-09T03:58:48.152Z,11.93
2022-12-09T04:01:16.386Z,11.23
2022-12-09T04:03:47.874Z,12.18
2022-12-09T04:06:15.183Z,11.82
2022-12-09T04:08:43.453Z,12.23
2022-12-09T04:11:11.412Z,12.15
2022-12-09T04:13:38.309Z,11.68
2022-12-09T04:16:05.553Z,13.13
2022-12-09T04:18:32.889Z,12.68
2022-12-09T04:21:00.248Z,13.30
2022-12-09T04:23:27.324Z,12.23
2022-12-09T04:25:54.277Z,13.43
2022-12-09T04:28:22.296Z,12.93
2022-12-09T04:30:49.154Z,13.25
2022-12-09T04:33:16.056Z,13.23
2022-12-09T04:35:43.078Z,13.68
2022-12-09T04:38:10.172Z,13.80
2022-12-09T04:40:38.518Z,13.10
2022-12-09T04:43:05.306Z,15.00
2022-12-09T04:45:32.445Z,14.02
2022-12-09T04:47:59.672Z,14.43
2022-12-09T04:50:27.268Z,14.45
2022-12-09T04:52:54.075Z,13.32
2022-12-09T04:55:21.103Z,14.15
2022-12-09T04:57:48.121Z,13.57
2022-12-09T05:00:15.974Z,13.70
2022-12-09T05:02:43.590Z,13.23
2022-12-09T05:05:10.742Z,12.98
2022-12-09T05:07:38.032Z,14.63
2022-12-09T05:10:06.189Z,13.80
2022-12-09T05:12:33.943Z,13.40
2022-12-09T05:15:01.400Z,12.38
2022-12-09T05:17:28.421Z,13.30
2022-12-09T05:19:55.853Z,13.65
2022-12-09T05:22:22.842Z,12.43
2022-12-09T05:24:49.808Z,12.57
2022-12-09T05:27:16.769Z,12.65
2022-12-09T05:29:43.851Z,11.68
2022-12-09T05:32:10.679Z,11.02
2022-12-09T05:34:38.329Z,9.73
2022-12-09T05:37:05.503Z,11.52
2022-12-09T05:39:32.719Z,11.13
2022-12-09T05:41:59.947Z,11.98
2022-12-09T05:44:26.830Z,11.40
2022-12-09T05:46:53.798Z,11.15
2022-12-09T05:49:21.208Z,12.38
2022-12-09T05:51:48.512Z,12.90
2022-12-09T05:54:15.733Z,13.25
2022-12-09T05:56:47.867Z,12.40
2022-12-09T05:59:15.716Z,14.02
2022-12-09T06:01:42.740Z,12.60
2022-12-09T06:04:10.229Z,13.90
2022-12-09T06:06:37.254Z,14.50
2022-12-09T06:09:08.665Z,12.23
2022-12-09T06:11:36.195Z,12.88
2022-12-09T06:14:03.611Z,13.18
2022-12-09T06:16:30.790Z,13.10
2022-12-09T06:18:58.554Z,12.75
2022-12-09T06:21:25.707Z,13.45
2022-12-09T06:23:53.681Z,13.95
2022-12-09T06:26:26.350Z,12.48
2022-12-09T06:28:54.883Z,13.50
2022-12-09T06:31:22.214Z,12.50
2022-12-09T06:33:58.316Z,12.60
2022-12-09T06:36:28.285Z,12.73
2022-12-09T06:38:56.915Z,12.18
2022-12-09T06:41:25.353Z,13.55
2022-12-09T06:43:52.751Z,11.95
2022-12-09T06:46:25.459Z,13.23
2022-12-09T06:48:54.837Z,13.65
2022-12-09T06:51:23.627Z,14.18
2022-12-09T06:53:50.905Z,12.57
2022-12-09T06:56:17.896Z,13.75
2022-12-09T06:58:46.565Z,13.18
2022-12-09T07:01:17.247Z,12.57
2022-12-09T07:03:46.808Z,12.15
2022-12-09T07:06:31.016Z,13.25
2022-12-09T07:09:01.001Z,12.23
2022-12-09T07:11:29.065Z,13.00
2022-12-09T07:13:56.297Z,12.60
2022-12-09T07:16:23.853Z,13.27
2022-12-09T07:18:51.205Z,13.93
2022-12-09T07:21:20.252Z,15.77
2022-12-09T07:23:48.535Z,16.40
2022-12-09T07:26:16.955Z,17.42
2022-12-09T07:28:47.325Z,18.73
2022-12-09T07:31:28.567Z,19.17
2022-12-09T07:33:58.944Z,18.17
2022-12-09T07:36:28.972Z,18.90
2022-12-09T07:38:57.193Z,16.65
2022-12-09T07:41:24.544Z,18.42
2022-12-09T07:43:51.764Z,19.67
2022-12-09T07:46:20.803Z,20.98
2022-12-09T07:48:48.574Z,20.67
2022-12-09T07:51:16.996Z,20.00
2022-12-09T07:53:44.540Z,21.08
2022-12-09T07:56:14.788Z,21.77
2022-12-09T07:58:42.443Z,21.33
2022-12-09T08:01:15.555Z,21.02
2022-12-09T08:03:43.506Z,22.27
2022-12-09T08:06:16.100Z,21.77
2022-12-09T08:08:44.273Z,22.95
2022-12-09T08:11:20.852Z,22.20
2022-12-09T08:13:48.557Z,21.88
2022-12-09T08:16:18.470Z,23.27
2022-12-09T08:18:46.352Z,21.90
2022-12-09T08:21:25.608Z,23.35
2022-12-09T08:23:54.408Z,24.27
2022-12-09T08:26:23.289Z,24.42
2022-12-09T08:28:51.103Z,23.05
2022-12-09T08:31:28.666Z,25.80
2022-12-09T08:33:55.934Z,22.92
2022-12-09T08:36:26.460Z,25.92
2022-12-09T08:38:53.970Z,25.50
2022-12-09T08:41:35.342Z,25.10
2022-12-09T08:44:12.153Z,25.17
2022-12-09T08:46:41.155Z,25.48
2022-12-09T08:49:09.020Z,23.67
2022-12-09T08:51:36.575Z,22.35
2022-12-09T08:54:04.425Z,23.95
2022-12-09T08:56:32.018Z,25.35
2022-12-09T08:58:58.966Z,25.88
2022-12-09T09:01:32.315Z,25.83
2022-12-09T09:04:07.852Z,27.75
2022-12-09T09:06:36.668Z,28.48
2022-12-09T09:09:06.088Z,29.45
2022-12-09T09:11:34.228Z,29.05
2022-12-09T09:14:04.129Z,26.42
2022-12-09T09:16:31.404Z,27.15
2022-12-09T09:18:58.354Z,25.73
2022-12-09T09:21:29.181Z,27.73
2022-12-09T09:23:56.425Z,28.98
2022-12-09T09:26:26.066Z,29.80
2022-12-09T09:28:55.100Z,28.90
2022-12-09T09:31:24.064Z,27.52
2022-12-09T09:33:51.790Z,27.38
2022-12-09T09:36:23.638Z,27.27
2022-12-09T09:38:53.259Z,27.92
2022-12-09T09:41:49.422Z,26.98
2022-12-09T09:44:25.626Z,25.05
2022-12-09T09:46:54.523Z,25.45
2022-12-09T09:50:01.617Z,28.90
2022-12-09T09:52:31.054Z,27.90
2022-12-09T09:54:58.649Z,27.80
2022-12-09T09:57:40.411Z,29.10
2022-12-09T10:00:38.813Z,28.17
2022-12-09T10:03:47.537Z,28.63
2022-12-09T10:06:52.392Z,28.08
2022-12-09T10:09:42.563Z,28.05
2022-12-09T10:12:26.455Z,27.85
2022-12-09T10:15:13.584Z,27.95
2022-12-09T10:17:57.939Z,29.58
2022-12-09T10:20:27.658Z,27.52
2022-12-09T10:23:06.893Z,27.15
2022-12-09T10:25:38.403Z,26.90
2022-12-09T10:28:27.713Z,27.83
2022-12-09T10:30:56.409Z,27.40
2022-12-09T10:33:32.409Z,26.45
2022-12-09T10:36:00.078Z,25.17
2022-12-09T10:38:29.560Z,26.17
2022-12-09T10:41:02.818Z,23.45
2022-12-09T10:43:36.226Z,22.40
2022-12-09T10:46:18.028Z,22.80
2022-12-09T10:48:46.351Z,22.35
2022-12-09T10:51:18.655Z,22.13
2022-12-09T10:53:54.325Z,23.60
2022-12-09T10:57:00.827Z,20.75
2022-12-09T10:59:30.021Z,20.05
2022-12-09T11:01:59.816Z,19.58
2022-12-09T11:04:37.214Z,19.50
2022-12-09T11:07:07.707Z,18.00
2022-12-09T11:09:41.653Z,17.02
2022-12-09T11:12:17.814Z,18.65
2022-12-09T11:14:53.326Z,16.27
2022-12-09T11:17:26.778Z,19.15
2022-12-09T11:20:15.707Z,18.52
2022-12-09T11:22:45.014Z,19.05
2022-12-09T11:25:12.249Z,19.88
2022-12-09T11:27:42.759Z,18.95
2022-12-09T11:30:16.562Z,19.20
2022-12-09T11:33:08.685Z,18.33
2022-12-09T11:35:44.970Z,19.27
2022-12-09T11:38:39.912Z,18.45
2022-12-09T11:41:09.682Z,17.67
2022-12-09T11:43:43.524Z,16.42
2022-12-09T11:46:12.953Z,16.77
2022-12-09T11:48:43.976Z,15.73
2022-12-09T11:51:36.081Z,16.63
2022-12-09T11:54:11.667Z,18.02
2022-12-09T11:56:40.674Z,16.38
2022-12-09T11:59:13.086Z,16.98
2022-12-09T12:01:42.895Z,16.40
2022-12-09T12:04:14.005Z,15.65
2022-12-09T12:06:50.661Z,16.77
2022-12-09T12:09:24.943Z,17.67
2022-12-09T12:12:13.716Z,18.20
2022-12-09T12:14:43.431Z,18.17
2022-12-09T12:17:26.777Z,18.83
2022-12-09T12:19:56.251Z,17.42
2022-12-09T12:22:36.934Z,17.25
2022-12-09T12:25:20.787Z,16.35
2022-12-09T12:28:05.598Z,16.05
2022-12-09T12:30:48.034Z,18.02
2022-12-09T12:34:00.296Z,17.38
2022-12-09T12:36:50.265Z,15.80
2022-12-09T12:39:35.861Z,16.20
2022-12-09T12:43:03.977Z,16.75
2022-12-09T12:45:58.128Z,14.40
2022-12-09T12:48:38.238Z,15.30
2022-12-09T12:51:43.862Z,14.40
2022-12-09T12:54:46.503Z,15.05
2022-12-09T12:57:52.381Z,15.32
2022-12-09T13:00:22.114Z,15.32
2022-12-09T13:03:09.572Z,15.95
2022-12-09T13:05:41.194Z,15.73
2022-12-09T13:08:18.671Z,15.00
2022-12-09T13:10:52.794Z,14.48
2022-12-09T13:13:37.452Z,14.07
2022-12-09T13:16:31.025Z,13.82
2022-12-09T13:19:17.821Z,13.63
2022-12-09T13:21:48.164Z,14.43
2022-12-09T13:24:37.778Z,13.45
2022-12-09T13:27:29.915Z,14.10
2022-12-09T13:29:59.857Z,12.83
2022-12-09T13:32:35.380Z,15.30
2022-12-09T13:35:27.224Z,15.43
2022-12-09T13:37:54.797Z,13.07
2022-12-09T13:40:21.509Z,13.00
2022-12-09T13:42:58.379Z,13.27
2022-12-09T13:45:33.835Z,12.15
2022-12-09T13:48:07.275Z,12.43
2022-12-09T13:50:57.613Z,12.63
2022-12-09T13:53:29.360Z,12.88
2022-12-09T13:56:17.678Z,13.70
2022-12-09T13:59:08.025Z,13.02
2022-12-09T14:01:54.712Z,13.20
2022-12-09T14:04:31.751Z,12.65
2022-12-09T14:07:16.049Z,13.88
2022-12-09T14:09:49.154Z,12.88
2022-12-09T14:12:32.617Z,13.23
2022-12-09T14:15:21.911Z,13.10
2022-12-09T14:17:48.612Z,13.25
2022-12-09T14:20:29.874Z,12.48
2022-12-09T14:23:09.647Z,14.80
2022-12-09T14:25:36.463Z,14.65
2022-12-09T14:28:09.651Z,14.73
2022-12-09T14:30:51.872Z,14.82
2022-12-09T14:33:40.763Z,13.52
2022-12-09T14:36:25.454Z,14.18
2022-12-09T14:39:24.685Z,14.13
2022-12-09T14:41:58.551Z,14.70
2022-12-09T14:44:52.695Z,14.32
2022-12-09T14:47:24.896Z,13.32
2022-12-09T14:49:53.885Z,15.32
2022-12-09T14:52:32.805Z,14.80
2022-12-09T14:55:02.812Z,14.52
2022-12-09T14:57:42.805Z,13.57
2022-12-09T15:00:27.603Z,14.05
2022-12-09T15:03:30.192Z,12.57
2022-12-09T15:05:52.725Z,12.80
2022-12-09T15:08:33.000Z,12.43
2022-12-09T15:11:04.472Z,12.48
2022-12-09T15:13:34.397Z,11.63
2022-12-09T15:16:01.600Z,12.15
2022-12-09T15:18:30.766Z,11.75
2022-12-09T15:21:01.250Z,14.27
2022-12-09T15:23:40.088Z,12.20
2022-12-09T15:26:36.258Z,12.63
2022-12-09T15:29:05.473Z,11.23
2022-12-09T15:31:34.296Z,13.32
2022-12-09T15:34:14.258Z,11.73
2022-12-09T15:36:51.018Z,11.90
2022-12-09T15:39:37.568Z,11.65
2022-12-09T15:42:10.743Z,11.35
2022-12-09T15:44:56.129Z,12.70
2022-12-09T15:47:45.535Z,11.88
2022-12-09T15:50:26.683Z,11.73
2022-12-09T15:53:02.713Z,11.13
2022-12-09T15:55:50.435Z,12.65
2022-12-09T15:58:24.510Z,12.15
2022-12-09T16:00:52.877Z,10.82
2022-12-09T16:03:28.385Z,11.55
2022-12-09T16:05:58.333Z,11.10
2022-12-09T16:08:33.878Z,10.88
2022-12-09T16:11:00.698Z,10.50
2022-12-09T16:13:27.623Z,10.57
2022-12-09T16:16:00.464Z,10.73
2022-12-09T16:18:46.505Z,12.07
2022-12-09T16:21:25.063Z,11.40
2022-12-09T16:23:54.602Z,11.27
2022-12-09T16:26:32.063Z,11.32
2022-12-09T16:29:02.574Z,11.32
2022-12-09T16:31:30.274Z,11.40
2022-12-09T16:33:57.790Z,11.45
2022-12-09T16:36:31.882Z,12.20
2022-12-09T16:39:07.759Z,11.30
2022-12-09T16:42:02.941Z,10.52
2022-12-09T16:44:35.492Z,11.48
2022-12-09T16:47:26.431Z,11.60
2022-12-09T16:49:53.163Z,11.23
2022-12-09T16:52:24.549Z,12.82
2022-12-09T16:54:51.972Z,12.05
2022-12-09T16:57:20.326Z,12.15
2022-12-09T16:59:47.256Z,12.40
2022-12-09T17:02:36.195Z,11.80
2022-12-09T17:05:04.120Z,11.57
2022-12-09T17:07:30.734Z,13.30
2022-12-09T17:09:57.529Z,11.90
2022-12-09T17:12:24.296Z,13.40
2022-12-09T17:14:51.357Z,11.82
2022-12-09T17:17:18.338Z,13.05
2022-12-09T17:19:45.071Z,13.13
2022-12-09T17:22:11.740Z,13.98
2022-12-09T17:24:38.639Z,13.77
2022-12-09T17:27:05.532Z,13.32
2022-12-09T17:29:32.224Z,14.27
2022-12-09T17:31:58.949Z,14.15
2022-12-09T17:34:25.707Z,13.13
2022-12-09T17:36:52.423Z,15.40
2022-12-09T17:39:20.264Z,16.52
2022-12-09T17:41:48.594Z,14.55
2022-12-09T17:44:16.098Z,15.07
2022-12-09T17:46:42.937Z,14.02
2022-12-09T17:49:09.653Z,14.40
2022-12-09T17:51:37.097Z,13.60
2022-12-09T17:54:04.753Z,13.25
2022-12-09T17:56:31.690Z,14.35
2022-12-09T17:59:02.701Z,12.98
2022-12-09T18:01:30.406Z,13.93
2022-12-09T18:04:04.379Z,12.85
2022-12-09T18:06:34.208Z,12.63
2022-12-09T18:09:05.889Z,13.35
2022-12-09T18:11:32.569Z,12.80
2022-12-09T18:13:59.760Z,14.57
2022-12-09T18:16:26.861Z,15.38
2022-12-09T18:18:53.734Z,16.25
2022-12-09T18:21:20.901Z,14.45
2022-12-09T18:23:48.630Z,15.52
2022-12-09T18:26:17.437Z,14.43
2022-12-09T18:28:44.413Z,14.63
2022-12-09T18:31:14.579Z,14.38
2022-12-09T18:33:42.208Z,17.02
2022-12-09T18:36:14.619Z,15.45
2022-12-09T18:38:42.149Z,16.70
2022-12-09T18:41:17.717Z,14.55
2022-12-09T18:43:46.420Z,14.75
2022-12-09T18:46:18.441Z,14.50
2022-12-09T18:48:49.718Z,14.05
2022-12-09T18:51:18.613Z,15.93
2022-12-09T18:53:45.987Z,15.48
2022-12-09T18:56:13.660Z,16.27
2022-12-09T18:59:04.914Z,15.50
2022-12-09T19:01:29.778Z,16.77
2022-12-09T19:03:59.900Z,18.05
2022-12-09T19:06:28.773Z,17.02
2022-12-09T19:08:58.743Z,19.08
2022-12-09T19:11:28.135Z,20.08
2022-12-09T19:13:55.754Z,17.63
2022-12-09T19:16:23.913Z,18.23
2022-12-09T19:18:51.042Z,16.92
2022-12-09T19:21:20.038Z,17.38
2022-12-09T19:23:47.821Z,18.08
2022-12-09T19:26:20.374Z,16.73
2022-12-09T19:28:53.015Z,18.23
2022-12-09T19:33:48.690Z,16.60
2022-12-09T19:36:15.566Z,17.77
2022-12-09T19:38:42.451Z,16.63
2022-12-09T19:41:09.073Z,16.80
2022-12-09T19:43:36.016Z,16.27
2022-12-09T19:46:07.834Z,17.00
2022-12-09T19:48:36.394Z,16.60
2022-12-09T19:51:05.236Z,16.48
2022-12-09T19:53:33.027Z,16.50
2022-12-09T19:56:08.404Z,16.25
2022-12-09T19:58:36.822Z,16.90
2022-12-09T20:01:22.754Z,16.63
2022-12-09T20:03:51.660Z,15.32
2022-12-09T20:06:21.230Z,15.60
2022-12-09T20:08:48.892Z,16.30
2022-12-09T20:11:17.946Z,17.13
2022-12-09T20:13:45.545Z,15.68
2022-12-09T20:16:15.041Z,16.55
2022-12-09T20:18:42.512Z,16.73
2022-12-09T20:21:11.963Z,15.88
2022-12-09T20:23:40.502Z,16.05
2022-12-09T20:26:09.425Z,16.13
2022-12-09T20:28:37.861Z,16.17
2022-12-09T20:31:17.454Z,16.80
2022-12-09T20:33:44.385Z,19.27
2022-12-09T20:36:23.849Z,19.25
2022-12-09T20:38:59.071Z,16.70
2022-12-09T20:41:27.071Z,15.60
2022-12-09T20:43:56.554Z,15.50
2022-12-09T20:46:25.989Z,15.23
2022-12-09T20:48:53.121Z,15.75
2022-12-09T20:51:22.954Z,15.82
2022-12-09T20:53:50.546Z,14.60
2022-12-09T20:56:18.591Z,14.27
2022-12-09T20:58:46.967Z,15.48
2022-12-09T21:01:17.513Z,14.65
2022-12-09T21:03:44.620Z,14.93
2022-12-09T21:06:13.076Z,16.00
2022-12-09T21:08:39.809Z,15.32
2022-12-09T21:11:17.613Z,14.25
2022-12-09T21:13:47.606Z,15.70
2022-12-09T21:16:25.248Z,14.30
2022-12-09T21:18:54.624Z,15.05
2022-12-09T21:21:22.906Z,15.35
2022-12-09T21:23:50.540Z,15.68
2022-12-09T21:26:18.725Z,13.98
2022-12-09T21:28:46.965Z,14.13
2022-12-09T21:31:17.977Z,14.40
2022-12-09T21:33:46.122Z,14.30
2022-12-09T21:36:19.253Z,15.13
2022-12-09T21:38:46.087Z,14.88
2022-12-09T21:41:15.499Z,14.10
2022-12-09T21:43:42.844Z,14.80
2022-12-09T21:46:15.807Z,13.10
2022-12-09T21:48:42.509Z,14.55
2022-12-09T21:51:11.043Z,14.55
2022-12-09T21:53:38.663Z,14.07
2022-12-09T21:56:20.223Z,14.43
2022-12-09T21:58:48.329Z,14.57
2022-12-09T22:01:16.561Z,14.60
2022-12-09T22:03:44.122Z,13.98
2022-12-09T22:06:11.732Z,13.88
2022-12-09T22:08:39.628Z,14.05
2022-12-09T22:11:11.394Z,15.18
2022-12-09T22:13:40.001Z,14.10
2022-12-09T22:16:13.500Z,14.52
2022-12-09T22:18:40.900Z,15.48
2022-12-09T22:21:27.004Z,16.08
2022-12-09T22:23:55.341Z,14.63
2022-12-09T22:26:23.088Z,15.15
2022-12-09T22:28:50.177Z,15.40
2022-12-09T22:31:22.641Z,14.85
2022-12-09T22:33:51.592Z,15.98
2022-12-09T22:36:19.082Z,15.63
2022-12-09T22:38:46.455Z,14.95
2022-12-09T22:41:19.002Z,15.60
2022-12-09T22:43:48.171Z,15.57
2022-12-09T22:46:24.450Z,15.73
2022-12-09T22:48:51.756Z,13.85
2022-12-09T22:51:26.533Z,15.27
2022-12-09T22:53:55.524Z,15.98
2022-12-09T22:56:23.397Z,16.17
2022-12-09T22:58:50.165Z,16.00
2022-12-09T23:01:23.263Z,15.88
2022-12-09T23:03:50.199Z,16.85
2022-12-09T23:06:16.927Z,15.18
2022-12-09T23:08:44.733Z,17.50
2022-12-09T23:11:14.793Z,16.23
2022-12-09T23:13:41.742Z,16.20
2022-12-09T23:16:12.430Z,15.52
2022-12-09T23:18:39.809Z,15.10
2022-12-09T23:21:22.062Z,16.10
2022-12-09T23:23:52.132Z,15.57
2022-12-09T23:26:20.525Z,16.00
2022-12-09T23:28:50.797Z,17.17
2022-12-09T23:31:21.676Z,14.57
2022-12-09T23:33:49.770Z,17.77
2022-12-09T23:36:25.526Z,15.20
2022-12-09T23:38:53.425Z,15.20
2022-12-09T23:41:22.291Z,16.42
2022-12-09T23:43:49.771Z,17.08
2022-12-09T23:46:19.703Z,18.02
2022-12-09T23:48:48.234Z,17.20
2022-12-09T23:51:17.388Z,17.48
2022-12-09T23:53:45.279Z,17.90
2022-12-09T23:56:23.250Z,18.50
2022-12-09T23:58:57.746Z,15.82
